»·PEaware :: 423MP L52-L88

423MP :: L52-L88

FLIGHT INFORMATION

Flight Status: Arrived
Operator: Unknown
More flights by this operator :: More flights under this callsign
Pilot: Michael P. (17418)
Aircraft: CESSNA 208 CARAVAN
(C208)
More flights by this aircraft type
Origin: L52 Oceano Co
United States
Destination: L88 New Cuyama
United States
More flights between these airports :: More routes between these airports
Route: L52 DIRECT L 88
File this flight plan on PilotEdge
Remarks: c-1 flight
Altitude:
(Current/Filed)
9,500ft
Speed:
(Current/Filed)
120kts
Departed: 09-May-18 11:37 AM
Arrived: 09-May-18 12:04 PM
Distance/Time
Traveled:
47nm/0:26
Distance/Time
To Go:
Arrived

Flight Plot

Page will automatically refresh every two minutes.

Flight plan parsing failed; only flown route is shown


Map Options




Map Legend


Flown Route
Filed Route
Departure Airport
Arrival Airport
Navaid (VOR, NDB)
Fix

Horizontal Profiles

Position Reports

Time Latitude Longitude Heading Altitude Ground
Speed
09-May-18 11:28 35.103496 -120.624071 34 19ft 0kts
09-May-18 11:29 35.103496 -120.624071 34 19ft 0kts
09-May-18 11:30 35.103496 -120.624071 34 19ft 0kts
09-May-18 11:31 35.103496 -120.624071 34 19ft 0kts
09-May-18 11:32 35.103496 -120.624071 34 19ft 0kts
09-May-18 11:33 35.103738 -120.624186 292 19ft 0kts
09-May-18 11:34 35.103739 -120.624188 292 19ft 0kts
09-May-18 11:35 35.103740 -120.624190 292 19ft 0kts
09-May-18 11:36 35.103317 -120.625105 219 19ft 0kts
09-May-18 11:37 35.101847 -120.622952 124 19ft 64kts
09-May-18 11:38 35.090697 -120.592421 58 803ft 109kts
09-May-18 11:39 35.086641 -120.557940 104 1921ft 112kts
09-May-18 11:40 35.080989 -120.518301 97 2869ft 124kts
09-May-18 11:41 35.076971 -120.474754 94 3799ft 132kts
09-May-18 11:42 35.072806 -120.429242 94 4696ft 137kts
09-May-18 11:43 35.063392 -120.383017 119 5593ft 146kts
09-May-18 11:44 35.045404 -120.337138 102 6415ft 154kts
09-May-18 11:45 35.039060 -120.284687 97 7217ft 157kts
09-May-18 11:46 35.029132 -120.232438 106 8026ft 161kts
09-May-18 11:47 35.021216 -120.177936 97 8831ft 163kts
09-May-18 11:48 35.016017 -120.120569 96 8321ft 175kts
09-May-18 11:49 35.010987 -120.061084 96 7608ft 174kts
09-May-18 11:50 35.006424 -120.005998 96 7490ft 153kts
09-May-18 11:51 34.999354 -119.954399 103 6991ft 157kts
09-May-18 11:52 34.989719 -119.899392 102 6333ft 168kts
09-May-18 11:53 34.978583 -119.843544 107 5690ft 182kts
09-May-18 11:54 34.959374 -119.788742 116 5056ft 156kts
09-May-18 11:55 34.938896 -119.744517 118 4055ft 142kts
09-May-18 11:56 34.922016 -119.705730 120 3367ft 117kts
09-May-18 11:57 34.906580 -119.673156 103 3260ft 102kts
09-May-18 11:58 34.914698 -119.651687 291 2841ft 97kts
09-May-18 11:59 34.916529 -119.685642 272 3133ft 101kts
09-May-18 12:00 34.901295 -119.675857 129 3882ft 112kts
09-May-18 12:01 34.896819 -119.645146 70 3307ft 101kts
09-May-18 12:02 34.919178 -119.649901 317 2735ft 101kts
09-May-18 12:03 34.933693 -119.678165 294 2272ft 100kts
09-May-18 12:04 34.939668 -119.693512 334 2208ft 4kts
09-May-18 12:05 34.939713 -119.693540 330 2208ft 0kts
09-May-18 12:06 34.939713 -119.693540 330 2208ft 0kts
09-May-18 12:07 34.939713 -119.693540 330 2208ft 0kts
09-May-18 12:08 34.939713 -119.693540 330 2208ft 0kts
09-May-18 12:09 34.939713 -119.693540 330 2208ft 0kts
09-May-18 12:10 34.939713 -119.693540 330 2208ft 0kts
09-May-18 12:11 34.939713 -119.693540 330 2208ft 0kts
09-May-18 12:12 34.939713 -119.693540 330 2208ft 0kts
09-May-18 12:13 34.939713 -119.693540 330 2208ft 0kts
09-May-18 12:14 34.939713 -119.693540 330 2208ft 0kts
09-May-18 12:15 34.939713 -119.693540 330 2208ft 0kts
09-May-18 12:16 34.939713 -119.693540 330 2208ft 0kts
09-May-18 12:17 34.939713 -119.693540 330 2208ft 0kts
09-May-18 12:18 34.939713 -119.693540 330 2208ft 0kts

Navigation Log

Ident Type
Flight plan parsing failed, navigation log unavailable